createdAt,value
2019-03-29T00:01:52.597Z,98095.83
2019-03-29T00:06:47.959Z,98090.66
2019-03-29T00:11:42.532Z,98086.41
2019-03-29T00:16:39.885Z,98081.70
2019-03-29T00:21:34.463Z,98081.84
2019-03-29T00:26:29.094Z,98083.98
2019-03-29T00:31:23.673Z,98080.73
2019-03-29T00:36:18.277Z,98072.62
2019-03-29T00:41:12.854Z,98067.52
2019-03-29T00:46:07.447Z,98061.98
2019-03-29T00:51:02.037Z,98050.13
2019-03-29T00:55:56.647Z,98058.25
2019-03-29T01:00:51.249Z,98052.77
2019-03-29T01:05:46.871Z,98044.14
2019-03-29T01:10:41.504Z,98053.66
2019-03-29T01:15:36.556Z,98041.91
2019-03-29T01:20:31.966Z,98048.90
2019-03-29T01:25:26.562Z,98044.02
2019-03-29T01:30:21.325Z,98040.28
2019-03-29T01:35:16.331Z,98041.77
2019-03-29T01:40:11.325Z,98036.03
2019-03-29T01:45:09.443Z,98029.55
2019-03-29T01:50:05.523Z,98030.59
2019-03-29T01:55:00.481Z,98032.22
2019-03-29T01:59:55.146Z,98027.18
2019-03-29T02:04:49.764Z,98019.22
2019-03-29T02:09:44.417Z,98024.53
2019-03-29T02:14:39.011Z,98016.92
2019-03-29T02:19:33.590Z,98016.05
2019-03-29T02:24:28.966Z,98016.92
2019-03-29T02:29:23.549Z,98012.55
2019-03-29T02:34:18.247Z,98018.38
2019-03-29T02:39:12.821Z,98013.66
2019-03-29T02:44:07.591Z,98013.06
2019-03-29T02:49:02.987Z,98011.37
2019-03-29T02:53:57.591Z,98020.00
2019-03-29T02:58:52.195Z,98014.87
2019-03-29T03:03:46.785Z,98008.39
2019-03-29T03:08:41.375Z,98005.59
2019-03-29T03:13:36.315Z,98007.09
2019-03-29T03:18:30.899Z,98012.63
2019-03-29T03:23:25.505Z,98014.73
2019-03-29T03:28:21.188Z,98016.44
2019-03-29T03:33:15.830Z,98025.43
2019-03-29T03:38:10.410Z,98037.50
2019-03-29T03:43:05.253Z,98037.71
2019-03-29T03:47:59.829Z,98036.23
2019-03-29T03:52:54.502Z,98036.62
2019-03-29T03:57:50.294Z,98031.76
2019-03-29T04:02:44.978Z,98037.27
2019-03-29T04:07:39.548Z,98036.47
2019-03-29T04:12:34.144Z,98049.03
2019-03-29T04:17:28.736Z,98038.28
2019-03-29T04:22:23.348Z,98043.20
2019-03-29T04:27:17.921Z,98041.56
2019-03-29T04:32:12.718Z,98042.06
2019-03-29T04:37:07.387Z,98043.91
2019-03-29T04:42:01.995Z,98045.83
2019-03-29T04:46:56.664Z,98046.84
2019-03-29T04:51:51.252Z,98053.55
2019-03-29T04:56:45.831Z,98059.26
2019-03-29T05:01:40.438Z,98051.16
2019-03-29T05:06:35.017Z,98058.31
2019-03-29T05:11:29.602Z,98067.78
2019-03-29T05:16:24.176Z,98067.11
2019-03-29T05:21:18.794Z,98067.63
2019-03-29T05:26:13.379Z,98067.91
2019-03-29T05:31:07.971Z,98065.38
2019-03-29T05:36:03.370Z,98066.16
2019-03-29T05:40:58.041Z,98056.37
2019-03-29T05:45:52.633Z,98053.30
2019-03-29T05:50:47.271Z,98056.86
2019-03-29T05:55:41.855Z,98055.44
2019-03-29T06:00:36.473Z,98042.72
2019-03-29T06:05:31.056Z,98033.88
2019-03-29T06:10:25.746Z,98033.77
2019-03-29T06:15:20.350Z,98047.06
2019-03-29T06:20:15.250Z,98036.23
2019-03-29T06:25:10.153Z,98039.09
2019-03-29T06:30:12.598Z,98043.26
2019-03-29T06:35:14.304Z,98040.09
2019-03-29T06:40:14.825Z,98041.32
2019-03-29T06:45:10.698Z,98037.38
2019-03-29T06:50:10.343Z,98048.47
2019-03-29T06:55:06.062Z,98044.74
2019-03-29T07:00:00.682Z,98046.66
2019-03-29T07:04:55.270Z,98049.57
2019-03-29T07:09:49.889Z,98050.80
2019-03-29T07:14:44.479Z,98045.42
2019-03-29T07:19:39.256Z,98054.72
2019-03-29T07:24:33.872Z,98056.28
2019-03-29T07:29:29.044Z,98056.00
2019-03-29T07:34:23.651Z,98058.19
2019-03-29T07:39:18.417Z,98060.13
2019-03-29T07:44:13.111Z,98055.59
2019-03-29T07:49:09.395Z,98065.41
2019-03-29T07:54:09.252Z,98063.58
2019-03-29T07:59:04.215Z,98068.38
2019-03-29T08:03:59.023Z,98065.79
2019-03-29T08:08:53.632Z,98069.31
2019-03-29T08:13:48.245Z,98072.30
2019-03-29T08:18:42.894Z,98060.33
2019-03-29T08:23:37.530Z,98066.45
2019-03-29T08:28:32.399Z,98064.74
2019-03-29T08:33:27.019Z,98071.20
2019-03-29T08:38:23.547Z,98076.81
2019-03-29T08:43:18.452Z,98078.22
2019-03-29T08:48:13.432Z,98075.29
2019-03-29T08:53:11.134Z,98072.05
2019-03-29T08:58:06.080Z,98076.59
2019-03-29T09:03:01.069Z,98075.05
2019-03-29T09:07:56.625Z,98078.83
2019-03-29T09:12:51.317Z,98074.66
2019-03-29T09:17:46.149Z,98072.49
2019-03-29T09:22:46.077Z,98079.40
2019-03-29T09:27:40.893Z,98062.27
2019-03-29T09:32:41.714Z,98061.38
2019-03-29T09:37:36.447Z,98057.66
2019-03-29T09:42:31.507Z,98055.63
2019-03-29T09:47:26.407Z,98055.89
2019-03-29T09:52:21.098Z,98045.67
2019-03-29T09:57:16.415Z,98052.62
2019-03-29T10:02:13.308Z,98058.14
2019-03-29T10:07:07.993Z,98053.58
2019-03-29T10:12:02.774Z,98044.42
2019-03-29T10:16:57.384Z,98043.13
2019-03-29T10:21:52.079Z,98043.34
2019-03-29T10:26:47.129Z,98035.50
2019-03-29T10:31:41.800Z,98028.20
2019-03-29T10:36:37.443Z,98028.78
2019-03-29T10:41:34.540Z,98025.38
2019-03-29T10:46:31.560Z,98017.88
2019-03-29T10:51:26.173Z,98015.12
2019-03-29T10:56:33.859Z,98015.13
2019-03-29T11:01:24.719Z,98019.94
2019-03-29T11:06:18.699Z,98018.54
2019-03-29T11:11:13.868Z,98015.06
2019-03-29T11:16:08.656Z,98011.14
2019-03-29T11:21:03.420Z,98012.41
2019-03-29T11:25:58.114Z,98005.16
2019-03-29T11:30:52.967Z,97998.26
2019-03-29T11:35:47.972Z,98003.64
2019-03-29T11:40:42.588Z,97995.23
2019-03-29T11:45:38.186Z,97994.83
2019-03-29T11:50:32.905Z,97996.48
2019-03-29T11:55:27.733Z,97995.16
2019-03-29T12:00:37.507Z,97993.61
2019-03-29T12:05:32.306Z,97974.94
2019-03-29T12:10:27.004Z,97970.59
2019-03-29T12:15:21.889Z,97968.84
2019-03-29T12:20:16.564Z,97958.98
2019-03-29T12:25:11.472Z,97960.59
2019-03-29T12:30:10.977Z,97951.58
2019-03-29T12:35:10.032Z,97947.14
2019-03-29T12:40:09.476Z,97942.81
2019-03-29T12:45:05.483Z,97930.90
2019-03-29T12:50:03.710Z,97921.70
2019-03-29T12:54:58.653Z,97914.31
2019-03-29T12:59:53.351Z,97916.48
2019-03-29T13:04:48.000Z,97912.20
2019-03-29T13:09:42.707Z,97906.02
2019-03-29T13:14:38.138Z,97903.08
2019-03-29T13:19:35.823Z,97892.88
2019-03-29T13:24:30.505Z,97884.11
2019-03-29T13:29:25.136Z,97883.90
2019-03-29T13:34:19.721Z,97874.88
2019-03-29T13:39:14.408Z,97874.09
2019-03-29T13:44:22.975Z,97862.27
2019-03-29T13:49:06.480Z,97869.78
2019-03-29T13:54:01.844Z,97862.87
2019-03-29T13:58:56.494Z,97853.70
2019-03-29T14:03:51.067Z,97858.91
2019-03-29T14:08:46.462Z,97841.97
2019-03-29T14:13:41.439Z,97848.42
2019-03-29T14:18:43.489Z,97848.75
2019-03-29T14:23:38.537Z,97835.09
2019-03-29T14:28:34.245Z,97830.70
2019-03-29T14:33:29.226Z,97819.65
2019-03-29T14:38:23.991Z,97818.08
2019-03-29T14:43:18.587Z,97813.61
2019-03-29T14:48:16.878Z,97804.60
2019-03-29T14:53:13.239Z,97801.30
2019-03-29T14:58:07.986Z,97799.78
2019-03-29T15:03:02.660Z,97797.40
2019-03-29T15:07:57.441Z,97797.92
2019-03-29T15:12:52.179Z,97792.82
2019-03-29T15:17:47.233Z,97781.00
2019-03-29T15:22:42.329Z,97777.32
2019-03-29T15:27:37.431Z,97778.19
2019-03-29T15:32:32.199Z,97779.72
2019-03-29T15:37:26.811Z,97771.81
2019-03-29T15:42:21.479Z,97766.77
2019-03-29T15:47:16.096Z,97761.78
2019-03-29T15:52:10.960Z,97755.08
2019-03-29T15:57:05.970Z,97753.95
2019-03-29T16:02:00.626Z,97742.78
2019-03-29T16:06:55.735Z,97745.51
2019-03-29T16:11:50.379Z,97740.93
2019-03-29T16:16:46.052Z,97742.37
2019-03-29T16:21:40.975Z,97739.66
2019-03-29T16:26:35.546Z,97737.34
2019-03-29T16:31:30.188Z,97737.19
2019-03-29T16:36:24.860Z,97728.77
2019-03-29T16:41:19.449Z,97728.52
2019-03-29T16:46:14.069Z,97735.78
2019-03-29T16:51:08.740Z,97734.17
2019-03-29T16:56:03.485Z,97737.66
2019-03-29T17:00:58.079Z,97738.10
2019-03-29T17:05:52.758Z,97739.09
2019-03-29T17:10:47.350Z,97739.41
2019-03-29T17:15:42.038Z,97737.86
2019-03-29T17:20:36.628Z,97740.23
2019-03-29T17:25:31.245Z,97740.20
2019-03-29T17:30:42.155Z,97734.89
2019-03-29T17:35:36.739Z,97730.77
2019-03-29T17:40:31.359Z,97728.41
2019-03-29T17:45:25.947Z,97725.73
2019-03-29T17:50:20.553Z,97728.66
2019-03-29T17:55:16.299Z,97733.58
2019-03-29T18:00:13.228Z,97739.41
2019-03-29T18:05:09.330Z,97737.05
2019-03-29T18:10:07.902Z,97736.45
2019-03-29T18:15:02.503Z,97741.54
2019-03-29T18:19:57.119Z,97735.40
2019-03-29T18:24:51.704Z,97742.63
2019-03-29T18:29:46.301Z,97740.82
2019-03-29T18:34:42.241Z,97753.23
2019-03-29T18:39:38.757Z,97758.47
2019-03-29T18:44:33.334Z,97755.33
2019-03-29T18:49:27.934Z,97753.56
2019-03-29T18:54:22.526Z,97755.27
2019-03-29T18:59:17.218Z,97760.44
2019-03-29T19:04:11.795Z,97764.28
2019-03-29T19:09:08.050Z,97778.97
2019-03-29T19:14:02.643Z,97776.25
2019-03-29T19:19:09.448Z,97783.63
2019-03-29T19:23:53.626Z,97786.45
2019-03-29T19:28:48.240Z,97782.40
2019-03-29T19:33:43.696Z,97785.00
2019-03-29T19:38:38.317Z,97779.56
2019-03-29T19:43:32.906Z,97783.98
2019-03-29T19:48:27.499Z,97784.38
2019-03-29T19:53:23.061Z,97776.58
2019-03-29T19:58:17.842Z,97775.30
2019-03-29T20:03:12.681Z,97770.47
2019-03-29T20:08:07.467Z,97775.39
2019-03-29T20:13:02.265Z,97769.98
2019-03-29T20:17:56.941Z,97772.16
2019-03-29T20:22:53.151Z,97773.39
2019-03-29T20:27:47.741Z,97775.95
2019-03-29T20:32:42.333Z,97775.86
2019-03-29T20:37:36.930Z,97782.89
2019-03-29T20:42:31.499Z,97784.02
2019-03-29T20:47:26.099Z,97785.28
2019-03-29T20:52:20.683Z,97783.91
2019-03-29T20:57:15.347Z,97787.78
2019-03-29T21:02:09.931Z,97785.09
2019-03-29T21:07:04.547Z,97793.37
2019-03-29T21:11:59.124Z,97793.43
2019-03-29T21:16:53.716Z,97785.97
2019-03-29T21:21:48.301Z,97781.30
2019-03-29T21:26:42.944Z,97778.12
2019-03-29T21:31:37.531Z,97785.71
2019-03-29T21:36:33.106Z,97779.05
2019-03-29T21:41:27.754Z,97783.56
2019-03-29T21:46:22.378Z,97786.11
2019-03-29T21:51:16.958Z,97778.91
2019-03-29T21:56:11.558Z,97773.91
2019-03-29T22:01:06.140Z,97774.10
2019-03-29T22:06:00.723Z,97777.34
2019-03-29T22:10:55.296Z,97766.83
2019-03-29T22:15:49.910Z,97763.93
2019-03-29T22:20:44.480Z,97763.55
2019-03-29T22:25:39.086Z,97764.59
2019-03-29T22:30:33.671Z,97762.30
2019-03-29T22:35:28.256Z,97764.28
2019-03-29T22:40:22.926Z,97759.52
2019-03-29T22:45:17.521Z,97756.08
2019-03-29T22:50:12.916Z,97759.93
2019-03-29T22:55:08.725Z,97760.77
2019-03-29T23:00:04.894Z,97769.67
2019-03-29T23:04:59.507Z,97759.56
2019-03-29T23:09:54.086Z,97759.19
2019-03-29T23:14:48.695Z,97760.88
2019-03-29T23:19:43.277Z,97759.14
2019-03-29T23:24:37.881Z,97760.17
2019-03-29T23:29:32.456Z,97758.97
2019-03-29T23:34:27.625Z,97755.88
2019-03-29T23:39:22.206Z,97760.92
2019-03-29T23:44:16.857Z,97765.53
2019-03-29T23:49:20.800Z,97753.42
2019-03-29T23:54:07.769Z,97763.38
2019-03-29T23:59:02.341Z,97759.19
